Decoded Metar for UHHH (KHABAROVSK in RUSSIA) (IATA:KHV) | Meteo·Mobile Aviation Weather
aviador You're here:

UHHH Decoded Metar

KHABAROVSK in RUSSIA
Report Time2019-02-18 10:00:00
UTC Time2019-02-18 10:32:31
Flight Rules vfr VFR
Wind220° at 6 kt
W.Decomp.*RWY 23: 6.0 kt HW 0.1 kt RCW
W.Rank220° ranks 8
Current wind is below 220° avg. (7.1)
Visibility9999 m
Phenomena:N/A
Clouds:N/A
Expected CloudBase > 4,000 ft AGL from Temp-Dew spread
CeilingNone
Temp-3°C (ISA -18)
Dew Point-13°C (46% RH)
AAT-8.4°C
QNH1013 hPa
Density Alt-1,886 ft
Elevation236 ft
Report Wrong Elevation
Raw Report
METAR UHHH 181000Z 22003MPS CAVOK M03/M13 Q1013 R23L/090060 NOSIG RMK
QFE753/1005=

Extra information for UHHH:More info

Metar Taf Metar & Taf Last 4 Metars F.Rules Stats Wind Profile Meteogram Temp Stats Airport Information Weather charts Add Link Nearby VenuesMetar ALERT Operation Metar Decoded Social comments